Flugplatz Mengen-Hohentengen

Für EDTM sind keine METAR/TAF Berichte vorhanden.
Es werden die Flugwettermeldungen vom Flugplatz Friedrichshafen in 43 km Entfernung angezeigt.

Bericht für EDNY

vom 14.08. um 07:50 UTC

Wind 4 kt aus 140°

Sichtweite 10 km oder mehr

schwacher Regen

keine Wolken

Temperatur 19.0°C

Taupunkt 18.0°C

Luftfeuchtigkeit 94%

Luftdruck 1017 hPa

EDNY 140750Z 14004KT 9999 -RA NSC 19/18 Q1017

Prognose für EDNY

vom 14.08. um 05:00 UTC

Zwischen 06:00 UTC und 06:00 UTC

variable Windrichtung mit 3 kt

Sichtweite 10 km oder mehr

aufgelockert bewölkt in 2500 ft


Zwischen 06:00 UTC und 12:00 UTC zeitweise

Wind 15 kt aus 240° in Böen 25 kt

Regenschauer

aufgebrochene Bewölkung in 1200 ft


Zwischen 12:00 UTC und 18:00 UTC zeitweise mit einer Wahrscheinlichkeit von 30%

Wind 20 kt aus 240° in Böen 35 kt

Sichtweite 3500 m

Code: TSRA

aufgebrochene Bewölkung in 1200 ft

TAF EDNY 140500Z 1406/1506 VRB03KT 9999 SCT025 TEMPO 1406/1412 24015G25KT SHRA BKN012CB PROB30 TEMPO 1412/1418 24020G35KT 3500 TSRA BKN012CB
Impressum